sensor_id;sensor_type;location;lat;lon;timestamp;temperature;humidity
22779;DHT22;11556;51.194;3.800;2023-03-01T00:01:50;1.90;99.90
22779;DHT22;11556;51.194;3.800;2023-03-01T00:04:16;1.90;99.90
22779;DHT22;11556;51.194;3.800;2023-03-01T00:06:42;1.90;99.90
22779;DHT22;11556;51.194;3.800;2023-03-01T00:09:12;1.80;99.90
22779;DHT22;11556;51.194;3.800;2023-03-01T00:11:38;1.80;99.90
22779;DHT22;11556;51.194;3.800;2023-03-01T00:14:04;1.80;99.90
22779;DHT22;11556;51.194;3.800;2023-03-01T00:16:38;1.80;99.90
22779;DHT22;11556;51.194;3.800;2023-03-01T00:19:06;1.80;99.90
22779;DHT22;11556;51.194;3.800;2023-03-01T00:21:32;1.90;99.90
22779;DHT22;11556;51.194;3.800;2023-03-01T00:23:59;2.00;99.90
22779;DHT22;11556;51.194;3.800;2023-03-01T00:26:25;2.00;99.90
22779;DHT22;11556;51.194;3.800;2023-03-01T00:28:51;2.10;99.90
22779;DHT22;11556;51.194;3.800;2023-03-01T00:31:20;2.10;99.90
22779;DHT22;11556;51.194;3.800;2023-03-01T00:33:46;2.00;99.90
22779;DHT22;11556;51.194;3.800;2023-03-01T00:36:14;2.00;99.90
22779;DHT22;11556;51.194;3.800;2023-03-01T00:38:42;2.00;99.90
22779;DHT22;11556;51.194;3.800;2023-03-01T00:41:10;1.90;99.90
22779;DHT22;11556;51.194;3.800;2023-03-01T00:43:36;1.90;99.90
22779;DHT22;11556;51.194;3.800;2023-03-01T00:46:04;1.80;99.90
22779;DHT22;11556;51.194;3.800;2023-03-01T00:48:30;1.80;99.90
22779;DHT22;11556;51.194;3.800;2023-03-01T00:50:56;1.80;99.90
22779;DHT22;11556;51.194;3.800;2023-03-01T00:53:21;1.70;99.90
22779;DHT22;11556;51.194;3.800;2023-03-01T00:55:47;1.60;99.90
22779;DHT22;11556;51.194;3.800;2023-03-01T00:58:12;1.60;99.90
22779;DHT22;11556;51.194;3.800;2023-03-01T01:00:38;1.60;99.90
22779;DHT22;11556;51.194;3.800;2023-03-01T01:03:03;1.60;99.90
22779;DHT22;11556;51.194;3.800;2023-03-01T01:05:29;1.60;99.90
22779;DHT22;11556;51.194;3.800;2023-03-01T01:07:55;1.60;99.90
22779;DHT22;11556;51.194;3.800;2023-03-01T01:10:20;1.60;99.90
22779;DHT22;11556;51.194;3.800;2023-03-01T01:12:46;1.60;99.90
22779;DHT22;11556;51.194;3.800;2023-03-01T01:15:12;1.50;99.90
22779;DHT22;11556;51.194;3.800;2023-03-01T01:17:40;1.50;99.90
22779;DHT22;11556;51.194;3.800;2023-03-01T01:20:06;1.40;99.90
22779;DHT22;11556;51.194;3.800;2023-03-01T01:22:31;1.40;99.90
22779;DHT22;11556;51.194;3.800;2023-03-01T01:24:57;1.40;99.90
22779;DHT22;11556;51.194;3.800;2023-03-01T01:27:23;1.40;99.90
22779;DHT22;11556;51.194;3.800;2023-03-01T01:29:48;1.40;99.90
22779;DHT22;11556;51.194;3.800;2023-03-01T01:32:14;1.40;99.90
22779;DHT22;11556;51.194;3.800;2023-03-01T01:34:40;1.30;99.90
22779;DHT22;11556;51.194;3.800;2023-03-01T01:37:05;1.30;99.90
22779;DHT22;11556;51.194;3.800;2023-03-01T01:39:34;1.20;99.90
22779;DHT22;11556;51.194;3.800;2023-03-01T01:42:01;1.30;99.90
22779;DHT22;11556;51.194;3.800;2023-03-01T01:44:28;1.20;99.90
22779;DHT22;11556;51.194;3.800;2023-03-01T01:47:04;1.20;99.90
22779;DHT22;11556;51.194;3.800;2023-03-01T01:49:35;1.20;99.90
22779;DHT22;11556;51.194;3.800;2023-03-01T01:54:56;1.20;99.90
22779;DHT22;11556;51.194;3.800;2023-03-01T01:57:29;1.20;99.90
22779;DHT22;11556;51.194;3.800;2023-03-01T02:00:02;1.10;99.90
22779;DHT22;11556;51.194;3.800;2023-03-01T02:02:30;1.10;99.90
22779;DHT22;11556;51.194;3.800;2023-03-01T02:05:03;1.10;99.90
22779;DHT22;11556;51.194;3.800;2023-03-01T02:07:31;1.10;99.90
22779;DHT22;11556;51.194;3.800;2023-03-01T02:09:57;1.10;99.90
22779;DHT22;11556;51.194;3.800;2023-03-01T02:12:24;1.10;99.90
22779;DHT22;11556;51.194;3.800;2023-03-01T02:14:51;1.10;99.90
22779;DHT22;11556;51.194;3.800;2023-03-01T02:17:18;1.10;99.90
22779;DHT22;11556;51.194;3.800;2023-03-01T02:22:36;1.10;99.90
22779;DHT22;11556;51.194;3.800;2023-03-01T02:30:20;1.10;99.90
22779;DHT22;11556;51.194;3.800;2023-03-01T02:32:47;1.20;99.90
22779;DHT22;11556;51.194;3.800;2023-03-01T02:35:15;1.20;99.90
22779;DHT22;11556;51.194;3.800;2023-03-01T02:37:42;1.20;99.90
22779;DHT22;11556;51.194;3.800;2023-03-01T02:40:12;1.10;99.90
22779;DHT22;11556;51.194;3.800;2023-03-01T02:42:50;1.10;99.90
22779;DHT22;11556;51.194;3.800;2023-03-01T02:45:16;1.20;99.90
22779;DHT22;11556;51.194;3.800;2023-03-01T02:47:42;1.20;99.90
22779;DHT22;11556;51.194;3.800;2023-03-01T02:50:22;1.10;99.90
22779;DHT22;11556;51.194;3.800;2023-03-01T02:53:08;1.20;99.90
22779;DHT22;11556;51.194;3.800;2023-03-01T02:55:36;1.30;99.90
22779;DHT22;11556;51.194;3.800;2023-03-01T02:58:02;1.30;99.90
22779;DHT22;11556;51.194;3.800;2023-03-01T03:00:34;1.30;99.90
22779;DHT22;11556;51.194;3.800;2023-03-01T03:03:01;1.20;99.90
22779;DHT22;11556;51.194;3.800;2023-03-01T03:05:29;1.20;99.90
22779;DHT22;11556;51.194;3.800;2023-03-01T03:07:55;1.20;99.90
22779;DHT22;11556;51.194;3.800;2023-03-01T03:10:33;1.20;99.90
22779;DHT22;11556;51.194;3.800;2023-03-01T03:13:05;1.20;99.90
22779;DHT22;11556;51.194;3.800;2023-03-01T03:15:31;1.10;99.90
22779;DHT22;11556;51.194;3.800;2023-03-01T03:18:03;1.10;99.90
22779;DHT22;11556;51.194;3.800;2023-03-01T03:20:29;1.10;99.90
22779;DHT22;11556;51.194;3.800;2023-03-01T03:22:56;1.10;99.90
22779;DHT22;11556;51.194;3.800;2023-03-01T03:25:22;1.00;99.90
22779;DHT22;11556;51.194;3.800;2023-03-01T03:27:50;1.00;99.90
22779;DHT22;11556;51.194;3.800;2023-03-01T03:30:23;1.10;99.90
22779;DHT22;11556;51.194;3.800;2023-03-01T03:32:49;1.00;99.90
22779;DHT22;11556;51.194;3.800;2023-03-01T03:37:51;0.90;99.90
22779;DHT22;11556;51.194;3.800;2023-03-01T03:40:38;0.90;99.90
22779;DHT22;11556;51.194;3.800;2023-03-01T03:43:26;0.90;99.90
22779;DHT22;11556;51.194;3.800;2023-03-01T03:45:51;0.90;99.90
22779;DHT22;11556;51.194;3.800;2023-03-01T03:48:18;0.90;99.90
22779;DHT22;11556;51.194;3.800;2023-03-01T03:50:49;0.90;99.90
22779;DHT22;11556;51.194;3.800;2023-03-01T03:53:15;0.90;99.90
22779;DHT22;11556;51.194;3.800;2023-03-01T03:55:40;0.90;99.90
22779;DHT22;11556;51.194;3.800;2023-03-01T03:58:08;0.90;99.90
22779;DHT22;11556;51.194;3.800;2023-03-01T04:03:02;0.90;99.90
22779;DHT22;11556;51.194;3.800;2023-03-01T04:05:28;0.80;99.90
22779;DHT22;11556;51.194;3.800;2023-03-01T04:07:53;0.70;99.90
22779;DHT22;11556;51.194;3.800;2023-03-01T04:10:30;0.70;99.90
22779;DHT22;11556;51.194;3.800;2023-03-01T04:12:57;0.70;99.90
22779;DHT22;11556;51.194;3.800;2023-03-01T04:15:24;0.70;99.90
22779;DHT22;11556;51.194;3.800;2023-03-01T04:17:51;0.70;99.90
22779;DHT22;11556;51.194;3.800;2023-03-01T04:20:24;0.70;99.90
22779;DHT22;11556;51.194;3.800;2023-03-01T04:22:58;0.60;99.90
22779;DHT22;11556;51.194;3.800;2023-03-01T04:25:24;0.60;99.90
22779;DHT22;11556;51.194;3.800;2023-03-01T04:27:50;0.60;99.90
22779;DHT22;11556;51.194;3.800;2023-03-01T04:30:15;0.60;99.90
22779;DHT22;11556;51.194;3.800;2023-03-01T04:32:41;0.60;99.90
22779;DHT22;11556;51.194;3.800;2023-03-01T04:35:08;0.60;99.90
22779;DHT22;11556;51.194;3.800;2023-03-01T04:37:33;0.60;99.90
22779;DHT22;11556;51.194;3.800;2023-03-01T04:40:00;0.60;99.90
22779;DHT22;11556;51.194;3.800;2023-03-01T04:42:26;0.60;99.90
22779;DHT22;11556;51.194;3.800;2023-03-01T04:44:52;0.60;99.90
22779;DHT22;11556;51.194;3.800;2023-03-01T04:47:17;0.50;99.90
22779;DHT22;11556;51.194;3.800;2023-03-01T04:49:43;0.50;99.90
22779;DHT22;11556;51.194;3.800;2023-03-01T04:52:10;0.40;99.90
22779;DHT22;11556;51.194;3.800;2023-03-01T04:54:36;0.50;99.90
22779;DHT22;11556;51.194;3.800;2023-03-01T04:57:02;0.40;99.90
22779;DHT22;11556;51.194;3.800;2023-03-01T04:59:29;0.40;99.90
22779;DHT22;11556;51.194;3.800;2023-03-01T05:01:55;0.40;99.90
22779;DHT22;11556;51.194;3.800;2023-03-01T05:04:22;0.40;99.90
22779;DHT22;11556;51.194;3.800;2023-03-01T05:06:48;0.40;99.90
22779;DHT22;11556;51.194;3.800;2023-03-01T05:09:13;0.40;99.90
22779;DHT22;11556;51.194;3.800;2023-03-01T05:11:39;0.30;99.90
22779;DHT22;11556;51.194;3.800;2023-03-01T05:14:06;0.30;99.90
22779;DHT22;11556;51.194;3.800;2023-03-01T05:16:32;0.30;99.90
22779;DHT22;11556;51.194;3.800;2023-03-01T05:18:58;0.30;99.90
22779;DHT22;11556;51.194;3.800;2023-03-01T05:21:24;0.30;99.90
22779;DHT22;11556;51.194;3.800;2023-03-01T05:23:50;0.30;99.90
22779;DHT22;11556;51.194;3.800;2023-03-01T05:26:18;0.20;99.90
22779;DHT22;11556;51.194;3.800;2023-03-01T05:28:45;0.20;99.90
22779;DHT22;11556;51.194;3.800;2023-03-01T05:31:11;0.20;99.90
22779;DHT22;11556;51.194;3.800;2023-03-01T05:33:38;0.20;99.90
22779;DHT22;11556;51.194;3.800;2023-03-01T05:36:05;0.20;99.90
22779;DHT22;11556;51.194;3.800;2023-03-01T05:38:31;0.10;99.90
22779;DHT22;11556;51.194;3.800;2023-03-01T05:40:56;0.10;99.90
22779;DHT22;11556;51.194;3.800;2023-03-01T05:43:22;0.10;99.90
22779;DHT22;11556;51.194;3.800;2023-03-01T05:45:48;0.20;99.90
22779;DHT22;11556;51.194;3.800;2023-03-01T05:48:14;0.20;99.90
22779;DHT22;11556;51.194;3.800;2023-03-01T05:50:42;0.10;99.90
22779;DHT22;11556;51.194;3.800;2023-03-01T05:53:14;0.20;99.90
22779;DHT22;11556;51.194;3.800;2023-03-01T05:55:40;0.20;99.90
22779;DHT22;11556;51.194;3.800;2023-03-01T05:58:13;0.20;99.90
22779;DHT22;11556;51.194;3.800;2023-03-01T06:00:40;0.20;99.90
22779;DHT22;11556;51.194;3.800;2023-03-01T06:03:05;0.10;99.90
22779;DHT22;11556;51.194;3.800;2023-03-01T06:05:31;0.10;99.90
22779;DHT22;11556;51.194;3.800;2023-03-01T06:08:01;0.10;99.90
22779;DHT22;11556;51.194;3.800;2023-03-01T06:10:27;0.10;99.90
22779;DHT22;11556;51.194;3.800;2023-03-01T06:12:53;0.20;99.90
22779;DHT22;11556;51.194;3.800;2023-03-01T06:15:19;0.20;99.90
22779;DHT22;11556;51.194;3.800;2023-03-01T06:17:45;0.20;99.90
22779;DHT22;11556;51.194;3.800;2023-03-01T06:20:17;0.20;99.90
22779;DHT22;11556;51.194;3.800;2023-03-01T06:22:44;0.20;99.90
22779;DHT22;11556;51.194;3.800;2023-03-01T06:25:11;0.20;99.90
22779;DHT22;11556;51.194;3.800;2023-03-01T06:27:37;0.20;99.90
22779;DHT22;11556;51.194;3.800;2023-03-01T06:30:03;0.20;99.90
22779;DHT22;11556;51.194;3.800;2023-03-01T06:32:29;0.20;99.90
22779;DHT22;11556;51.194;3.800;2023-03-01T06:34:56;0.20;99.90
22779;DHT22;11556;51.194;3.800;2023-03-01T06:37:24;0.20;99.90
22779;DHT22;11556;51.194;3.800;2023-03-01T06:39:49;0.20;99.90
22779;DHT22;11556;51.194;3.800;2023-03-01T06:42:15;0.20;99.90
22779;DHT22;11556;51.194;3.800;2023-03-01T06:44:41;0.20;99.90
22779;DHT22;11556;51.194;3.800;2023-03-01T06:47:06;0.20;99.90
22779;DHT22;11556;51.194;3.800;2023-03-01T06:49:32;0.20;99.90
22779;DHT22;11556;51.194;3.800;2023-03-01T06:51:57;0.20;99.90
22779;DHT22;11556;51.194;3.800;2023-03-01T06:54:23;0.20;99.90
22779;DHT22;11556;51.194;3.800;2023-03-01T06:56:49;0.30;99.90
22779;DHT22;11556;51.194;3.800;2023-03-01T06:59:16;0.50;99.90
22779;DHT22;11556;51.194;3.800;2023-03-01T07:01:42;0.90;99.90
22779;DHT22;11556;51.194;3.800;2023-03-01T07:04:09;1.20;99.90
22779;DHT22;11556;51.194;3.800;2023-03-01T07:06:35;1.50;99.90
22779;DHT22;11556;51.194;3.800;2023-03-01T07:09:00;1.60;99.90
22779;DHT22;11556;51.194;3.800;2023-03-01T07:11:26;1.70;99.90
22779;DHT22;11556;51.194;3.800;2023-03-01T07:13:51;2.10;99.90
22779;DHT22;11556;51.194;3.800;2023-03-01T07:16:17;2.50;99.90
22779;DHT22;11556;51.194;3.800;2023-03-01T07:18:43;3.00;99.90
22779;DHT22;11556;51.194;3.800;2023-03-01T07:21:12;3.00;99.90
22779;DHT22;11556;51.194;3.800;2023-03-01T07:23:38;3.30;99.90
22779;DHT22;11556;51.194;3.800;2023-03-01T07:26:03;3.30;99.90
22779;DHT22;11556;51.194;3.800;2023-03-01T07:28:32;3.40;99.90
22779;DHT22;11556;51.194;3.800;2023-03-01T07:31:05;3.70;99.90
22779;DHT22;11556;51.194;3.800;2023-03-01T07:33:31;3.80;99.90
22779;DHT22;11556;51.194;3.800;2023-03-01T07:36:02;4.00;99.90
22779;DHT22;11556;51.194;3.800;2023-03-01T07:38:28;4.20;99.90
22779;DHT22;11556;51.194;3.800;2023-03-01T07:40:58;4.60;99.90
22779;DHT22;11556;51.194;3.800;2023-03-01T07:43:24;5.10;99.90
22779;DHT22;11556;51.194;3.800;2023-03-01T07:45:50;5.40;99.90
22779;DHT22;11556;51.194;3.800;2023-03-01T07:48:15;6.20;99.90
22779;DHT22;11556;51.194;3.800;2023-03-01T07:50:41;7.00;99.90
22779;DHT22;11556;51.194;3.800;2023-03-01T07:53:06;7.20;99.90
22779;DHT22;11556;51.194;3.800;2023-03-01T07:55:32;7.30;99.90
22779;DHT22;11556;51.194;3.800;2023-03-01T07:57:58;7.30;99.90
22779;DHT22;11556;51.194;3.800;2023-03-01T08:00:23;7.30;99.90
22779;DHT22;11556;51.194;3.800;2023-03-01T08:02:49;7.80;99.90
22779;DHT22;11556;51.194;3.800;2023-03-01T08:05:15;7.80;99.90
22779;DHT22;11556;51.194;3.800;2023-03-01T08:07:40;8.60;99.90
22779;DHT22;11556;51.194;3.800;2023-03-01T08:10:06;9.10;99.90
22779;DHT22;11556;51.194;3.800;2023-03-01T08:12:32;8.40;99.90
22779;DHT22;11556;51.194;3.800;2023-03-01T08:14:58;8.00;99.90
22779;DHT22;11556;51.194;3.800;2023-03-01T08:17:23;8.10;99.90
22779;DHT22;11556;51.194;3.800;2023-03-01T08:19:49;8.40;99.90
22779;DHT22;11556;51.194;3.800;2023-03-01T08:22:14;9.10;99.90
22779;DHT22;11556;51.194;3.800;2023-03-01T08:24:40;9.40;99.90
22779;DHT22;11556;51.194;3.800;2023-03-01T08:27:06;9.20;99.90
22779;DHT22;11556;51.194;3.800;2023-03-01T08:29:32;8.70;99.90
22779;DHT22;11556;51.194;3.800;2023-03-01T08:31:58;8.20;99.90
22779;DHT22;11556;51.194;3.800;2023-03-01T08:34:25;7.90;99.90
22779;DHT22;11556;51.194;3.800;2023-03-01T08:36:51;7.60;99.90
22779;DHT22;11556;51.194;3.800;2023-03-01T08:39:19;7.50;99.90
22779;DHT22;11556;51.194;3.800;2023-03-01T08:41:45;7.70;99.90
22779;DHT22;11556;51.194;3.800;2023-03-01T08:44:13;7.90;99.90
22779;DHT22;11556;51.194;3.800;2023-03-01T08:46:40;7.80;99.90
22779;DHT22;11556;51.194;3.800;2023-03-01T08:49:12;7.80;99.90
22779;DHT22;11556;51.194;3.800;2023-03-01T08:51:39;7.70;99.90
22779;DHT22;11556;51.194;3.800;2023-03-01T08:54:07;7.50;99.90
22779;DHT22;11556;51.194;3.800;2023-03-01T08:56:33;7.40;99.90
22779;DHT22;11556;51.194;3.800;2023-03-01T08:58:59;7.50;99.90
22779;DHT22;11556;51.194;3.800;2023-03-01T09:01:25;7.70;99.90
22779;DHT22;11556;51.194;3.800;2023-03-01T09:03:51;7.70;99.90
22779;DHT22;11556;51.194;3.800;2023-03-01T09:06:17;7.70;99.90
22779;DHT22;11556;51.194;3.800;2023-03-01T09:08:45;7.90;99.90
22779;DHT22;11556;51.194;3.800;2023-03-01T09:11:13;7.70;99.90
22779;DHT22;11556;51.194;3.800;2023-03-01T09:13:40;7.50;99.90
22779;DHT22;11556;51.194;3.800;2023-03-01T09:16:07;7.60;99.90
22779;DHT22;11556;51.194;3.800;2023-03-01T09:18:34;7.30;99.90
22779;DHT22;11556;51.194;3.800;2023-03-01T09:21:12;7.40;99.90
22779;DHT22;11556;51.194;3.800;2023-03-01T09:23:43;7.30;99.90
22779;DHT22;11556;51.194;3.800;2023-03-01T09:26:12;7.10;99.90
22779;DHT22;11556;51.194;3.800;2023-03-01T09:28:38;7.30;99.90
22779;DHT22;11556;51.194;3.800;2023-03-01T09:31:04;7.80;99.90
22779;DHT22;11556;51.194;3.800;2023-03-01T09:33:32;8.00;99.90
22779;DHT22;11556;51.194;3.800;2023-03-01T09:36:02;8.30;99.90
22779;DHT22;11556;51.194;3.800;2023-03-01T09:38:28;8.50;99.90
22779;DHT22;11556;51.194;3.800;2023-03-01T09:40:54;8.70;99.90
22779;DHT22;11556;51.194;3.800;2023-03-01T09:45:50;8.60;99.90
22779;DHT22;11556;51.194;3.800;2023-03-01T09:48:20;9.10;99.70
22779;DHT22;11556;51.194;3.800;2023-03-01T09:50:49;8.50;98.70
22779;DHT22;11556;51.194;3.800;2023-03-01T09:53:21;8.00;99.90
22779;DHT22;11556;51.194;3.800;2023-03-01T09:56:03;8.20;99.90
22779;DHT22;11556;51.194;3.800;2023-03-01T09:58:50;8.80;99.60
22779;DHT22;11556;51.194;3.800;2023-03-01T10:01:31;8.90;99.50
22779;DHT22;11556;51.194;3.800;2023-03-01T10:06:57;9.50;96.40
22779;DHT22;11556;51.194;3.800;2023-03-01T10:09:23;9.70;95.30
22779;DHT22;11556;51.194;3.800;2023-03-01T10:11:52;9.60;95.00
22779;DHT22;11556;51.194;3.800;2023-03-01T10:19:49;9.50;94.30
22779;DHT22;11556;51.194;3.800;2023-03-01T10:22:24;9.60;94.50
22779;DHT22;11556;51.194;3.800;2023-03-01T10:24:54;9.60;94.70
22779;DHT22;11556;51.194;3.800;2023-03-01T10:27:24;9.70;93.40
22779;DHT22;11556;51.194;3.800;2023-03-01T10:32:30;9.10;93.10
22779;DHT22;11556;51.194;3.800;2023-03-01T10:34:56;8.60;95.10
22779;DHT22;11556;51.194;3.800;2023-03-01T10:37:22;9.20;95.20
22779;DHT22;11556;51.194;3.800;2023-03-01T10:42:36;9.40;92.50
22779;DHT22;11556;51.194;3.800;2023-03-01T10:45:33;9.80;92.20
22779;DHT22;11556;51.194;3.800;2023-03-01T10:50:47;8.60;94.20
22779;DHT22;11556;51.194;3.800;2023-03-01T10:53:36;8.80;93.90
22779;DHT22;11556;51.194;3.800;2023-03-01T10:56:09;9.00;93.40
22779;DHT22;11556;51.194;3.800;2023-03-01T10:58:37;8.90;92.80
22779;DHT22;11556;51.194;3.800;2023-03-01T11:01:43;8.90;93.30
22779;DHT22;11556;51.194;3.800;2023-03-01T11:06:35;9.40;93.30
22779;DHT22;11556;51.194;3.800;2023-03-01T11:11:39;9.80;91.30
22779;DHT22;11556;51.194;3.800;2023-03-01T11:14:19;9.90;91.30
22779;DHT22;11556;51.194;3.800;2023-03-01T11:16:48;10.40;91.10
22779;DHT22;11556;51.194;3.800;2023-03-01T11:19:19;10.30;90.00
22779;DHT22;11556;51.194;3.800;2023-03-01T11:22:11;10.30;90.40
22779;DHT22;11556;51.194;3.800;2023-03-01T11:27:06;9.40;88.20
22779;DHT22;11556;51.194;3.800;2023-03-01T11:29:35;9.20;90.40
22779;DHT22;11556;51.194;3.800;2023-03-01T11:32:07;9.20;90.90
22779;DHT22;11556;51.194;3.800;2023-03-01T11:37:39;9.70;90.10
22779;DHT22;11556;51.194;3.800;2023-03-01T11:40:29;10.10;86.60
22779;DHT22;11556;51.194;3.800;2023-03-01T11:51:23;10.10;88.00
22779;DHT22;11556;51.194;3.800;2023-03-01T11:59:55;10.70;83.40
22779;DHT22;11556;51.194;3.800;2023-03-01T12:08:02;11.10;86.00
22779;DHT22;11556;51.194;3.800;2023-03-01T12:16:28;11.80;76.70
22779;DHT22;11556;51.194;3.800;2023-03-01T12:24:37;12.00;78.00
22779;DHT22;11556;51.194;3.800;2023-03-01T12:33:02;13.10;73.50
22779;DHT22;11556;51.194;3.800;2023-03-01T12:38:32;11.60;78.30
22779;DHT22;11556;51.194;3.800;2023-03-01T12:46:51;12.20;76.60
22779;DHT22;11556;51.194;3.800;2023-03-01T12:49:23;12.00;75.90
22779;DHT22;11556;51.194;3.800;2023-03-01T12:52:10;11.40;79.10
22779;DHT22;11556;51.194;3.800;2023-03-01T12:54:38;11.20;78.60
22779;DHT22;11556;51.194;3.800;2023-03-01T12:57:21;11.50;76.90
22779;DHT22;11556;51.194;3.800;2023-03-01T13:05:39;9.60;81.10
22779;DHT22;11556;51.194;3.800;2023-03-01T13:08:29;10.00;83.00
22779;DHT22;11556;51.194;3.800;2023-03-01T13:11:19;10.10;83.00
22779;DHT22;11556;51.194;3.800;2023-03-01T13:13:46;10.10;80.70
22779;DHT22;11556;51.194;3.800;2023-03-01T13:16:40;10.40;81.70
22779;DHT22;11556;51.194;3.800;2023-03-01T13:19:16;11.20;79.40
22779;DHT22;11556;51.194;3.800;2023-03-01T13:21:46;11.30;78.80
22779;DHT22;11556;51.194;3.800;2023-03-01T13:24:25;11.50;79.30
22779;DHT22;11556;51.194;3.800;2023-03-01T13:29:53;11.00;77.20
22779;DHT22;11556;51.194;3.800;2023-03-01T13:32:37;10.70;78.70
22779;DHT22;11556;51.194;3.800;2023-03-01T13:37:40;10.60;78.70
22779;DHT22;11556;51.194;3.800;2023-03-01T13:42:48;10.00;80.30
22779;DHT22;11556;51.194;3.800;2023-03-01T13:45:21;10.10;79.50
22779;DHT22;11556;51.194;3.800;2023-03-01T13:48:02;10.00;82.40
22779;DHT22;11556;51.194;3.800;2023-03-01T13:50:36;9.90;82.50
22779;DHT22;11556;51.194;3.800;2023-03-01T13:53:06;10.30;83.80
22779;DHT22;11556;51.194;3.800;2023-03-01T13:55:40;11.20;81.10
22779;DHT22;11556;51.194;3.800;2023-03-01T13:58:18;11.20;80.10
22779;DHT22;11556;51.194;3.800;2023-03-01T14:00:45;11.30;79.20
22779;DHT22;11556;51.194;3.800;2023-03-01T14:03:12;11.80;77.90
22779;DHT22;11556;51.194;3.800;2023-03-01T14:05:40;11.20;77.10
22779;DHT22;11556;51.194;3.800;2023-03-01T14:08:22;10.90;80.20
22779;DHT22;11556;51.194;3.800;2023-03-01T14:10:59;11.00;78.70
22779;DHT22;11556;51.194;3.800;2023-03-01T14:21:35;10.30;81.70
22779;DHT22;11556;51.194;3.800;2023-03-01T14:24:02;10.20;82.20
22779;DHT22;11556;51.194;3.800;2023-03-01T14:26:29;10.30;82.30
22779;DHT22;11556;51.194;3.800;2023-03-01T14:28:56;10.60;82.20
22779;DHT22;11556;51.194;3.800;2023-03-01T14:31:37;10.90;79.60
22779;DHT22;11556;51.194;3.800;2023-03-01T14:34:04;10.70;79.30
22779;DHT22;11556;51.194;3.800;2023-03-01T14:36:32;9.90;82.60
22779;DHT22;11556;51.194;3.800;2023-03-01T14:38:59;9.70;84.70
22779;DHT22;11556;51.194;3.800;2023-03-01T14:41:32;9.90;83.80
22779;DHT22;11556;51.194;3.800;2023-03-01T14:44:05;10.00;84.90
22779;DHT22;11556;51.194;3.800;2023-03-01T14:46:35;9.90;84.60
22779;DHT22;11556;51.194;3.800;2023-03-01T14:51:40;10.20;83.60
22779;DHT22;11556;51.194;3.800;2023-03-01T14:57:02;10.20;82.90
22779;DHT22;11556;51.194;3.800;2023-03-01T14:59:28;10.30;83.10
22779;DHT22;11556;51.194;3.800;2023-03-01T15:01:56;9.80;82.80
22779;DHT22;11556;51.194;3.800;2023-03-01T15:04:24;9.70;84.30
22779;DHT22;11556;51.194;3.800;2023-03-01T15:06:52;9.50;82.10
22779;DHT22;11556;51.194;3.800;2023-03-01T15:09:19;9.40;84.90
22779;DHT22;11556;51.194;3.800;2023-03-01T15:11:44;9.20;85.30
22779;DHT22;11556;51.194;3.800;2023-03-01T15:14:42;9.10;86.20
22779;DHT22;11556;51.194;3.800;2023-03-01T15:17:35;9.10;88.60
22779;DHT22;11556;51.194;3.800;2023-03-01T15:20:04;9.30;85.10
22779;DHT22;11556;51.194;3.800;2023-03-01T15:22:31;9.00;84.80
22779;DHT22;11556;51.194;3.800;2023-03-01T15:24:57;9.10;84.70
22779;DHT22;11556;51.194;3.800;2023-03-01T15:27:25;9.30;84.20
22779;DHT22;11556;51.194;3.800;2023-03-01T15:29:55;9.20;85.20
22779;DHT22;11556;51.194;3.800;2023-03-01T15:34:49;8.90;83.90
22779;DHT22;11556;51.194;3.800;2023-03-01T15:39:59;8.70;86.10
22779;DHT22;11556;51.194;3.800;2023-03-01T15:45:20;9.00;85.60
22779;DHT22;11556;51.194;3.800;2023-03-01T15:47:53;8.70;88.20
22779;DHT22;11556;51.194;3.800;2023-03-01T15:52:57;8.60;87.60
22779;DHT22;11556;51.194;3.800;2023-03-01T15:55:29;8.50;88.80
22779;DHT22;11556;51.194;3.800;2023-03-01T15:58:18;8.50;88.80
22779;DHT22;11556;51.194;3.800;2023-03-01T16:00:46;8.50;88.70
22779;DHT22;11556;51.194;3.800;2023-03-01T16:03:14;8.50;89.80
22779;DHT22;11556;51.194;3.800;2023-03-01T16:05:40;8.60;88.20
22779;DHT22;11556;51.194;3.800;2023-03-01T16:08:06;8.30;87.40
22779;DHT22;11556;51.194;3.800;2023-03-01T16:10:33;8.20;88.80
22779;DHT22;11556;51.194;3.800;2023-03-01T16:12:59;8.30;89.40
22779;DHT22;11556;51.194;3.800;2023-03-01T16:15:30;8.40;87.50
22779;DHT22;11556;51.194;3.800;2023-03-01T16:17:57;8.20;88.80
22779;DHT22;11556;51.194;3.800;2023-03-01T16:20:26;8.20;90.00
22779;DHT22;11556;51.194;3.800;2023-03-01T16:22:52;8.10;90.20
22779;DHT22;11556;51.194;3.800;2023-03-01T16:25:19;8.30;89.70
22779;DHT22;11556;51.194;3.800;2023-03-01T16:27:48;8.30;89.20
22779;DHT22;11556;51.194;3.800;2023-03-01T16:30:15;8.10;88.60
22779;DHT22;11556;51.194;3.800;2023-03-01T16:32:43;7.90;88.80
22779;DHT22;11556;51.194;3.800;2023-03-01T16:35:11;7.90;89.40
22779;DHT22;11556;51.194;3.800;2023-03-01T16:37:38;7.70;90.00
22779;DHT22;11556;51.194;3.800;2023-03-01T16:40:05;7.70;90.90
22779;DHT22;11556;51.194;3.800;2023-03-01T16:42:36;7.60;90.80
22779;DHT22;11556;51.194;3.800;2023-03-01T16:45:02;7.40;91.00
22779;DHT22;11556;51.194;3.800;2023-03-01T16:47:29;7.40;91.60
22779;DHT22;11556;51.194;3.800;2023-03-01T16:49:55;7.30;92.30
22779;DHT22;11556;51.194;3.800;2023-03-01T16:52:21;7.30;92.70
22779;DHT22;11556;51.194;3.800;2023-03-01T16:54:47;7.30;92.60
22779;DHT22;11556;51.194;3.800;2023-03-01T16:57:14;7.20;93.00
22779;DHT22;11556;51.194;3.800;2023-03-01T16:59:40;7.10;92.90
22779;DHT22;11556;51.194;3.800;2023-03-01T17:02:07;7.00;92.70
22779;DHT22;11556;51.194;3.800;2023-03-01T17:04:35;6.90;93.00
22779;DHT22;11556;51.194;3.800;2023-03-01T17:07:01;6.80;92.80
22779;DHT22;11556;51.194;3.800;2023-03-01T17:09:26;6.80;93.10
22779;DHT22;11556;51.194;3.800;2023-03-01T17:11:52;6.80;93.40
22779;DHT22;11556;51.194;3.800;2023-03-01T17:14:17;6.70;94.10
22779;DHT22;11556;51.194;3.800;2023-03-01T17:16:43;6.60;94.40
22779;DHT22;11556;51.194;3.800;2023-03-01T17:19:09;6.50;94.90
22779;DHT22;11556;51.194;3.800;2023-03-01T17:21:36;6.50;95.10
22779;DHT22;11556;51.194;3.800;2023-03-01T17:24:02;6.40;95.60
22779;DHT22;11556;51.194;3.800;2023-03-01T17:26:28;6.30;95.80
22779;DHT22;11556;51.194;3.800;2023-03-01T17:28:55;6.20;95.80
22779;DHT22;11556;51.194;3.800;2023-03-01T17:31:21;6.20;96.00
22779;DHT22;11556;51.194;3.800;2023-03-01T17:33:47;6.20;96.30
22779;DHT22;11556;51.194;3.800;2023-03-01T17:36:14;6.10;96.90
22779;DHT22;11556;51.194;3.800;2023-03-01T17:38:40;6.00;96.90
22779;DHT22;11556;51.194;3.800;2023-03-01T17:41:06;6.00;97.40
22779;DHT22;11556;51.194;3.800;2023-03-01T17:43:32;5.90;97.90
22779;DHT22;11556;51.194;3.800;2023-03-01T17:45:59;5.90;98.50
22779;DHT22;11556;51.194;3.800;2023-03-01T17:48:25;5.80;98.90
22779;DHT22;11556;51.194;3.800;2023-03-01T17:50:50;5.80;98.90
22779;DHT22;11556;51.194;3.800;2023-03-01T17:53:16;5.70;99.10
22779;DHT22;11556;51.194;3.800;2023-03-01T17:55:43;5.70;99.10
22779;DHT22;11556;51.194;3.800;2023-03-01T17:58:12;5.60;99.90
22779;DHT22;11556;51.194;3.800;2023-03-01T18:00:38;5.60;99.90
22779;DHT22;11556;51.194;3.800;2023-03-01T18:03:04;5.50;99.90
22779;DHT22;11556;51.194;3.800;2023-03-01T18:05:35;5.40;99.90